Time;durP1;ratioP1;P1;durP2;ratioP2;P2;SDS_P1;SDS_P2;PMS_P1;PMS_P2;Temp;Humidity;BMP_temperature;BMP_pressure;BME280_temperature;BME280_humidity;BME280_pressure;Samples;Min_cycle;Max_cycle;Signal;HPM_P1;HPM_P2
2024/01/28 00:00:43;;;;;;;9.90;6.83;;;;;;;;;;6194340;23;20359;-86
2024/01/28 00:03:10;;;;;;;7.43;5.03;;;;;;;;;;6191337;23;20371;-86
2024/01/28 00:05:36;;;;;;;5.80;4.77;;;;;;;;;;6189910;23;20383;-86
2024/01/28 00:08:04;;;;;;;4.40;4.00;;;;;;;;;;6189568;23;20387;-87
2024/01/28 00:10:30;;;;;;;5.53;4.37;;;;;;;;;;6218123;23;20917;-86
2024/01/28 00:12:56;;;;;;;7.97;3.70;;;;;;;;;;6192904;23;20395;-85
2024/01/28 00:15:22;;;;;;;5.63;4.83;;;;;;;;;;6193208;23;20755;-86
2024/01/28 00:17:48;;;;;;;5.03;4.40;;;;;;;;;;6192414;23;20388;-86
2024/01/28 00:20:14;;;;;;;6.07;3.87;;;;;;;;;;6193644;23;20402;-87
2024/01/28 00:22:40;;;;;;;8.40;5.07;;;;;;;;;;6216539;23;20378;-87
2024/01/28 00:25:06;;;;;;;7.63;4.00;;;;;;;;;;6192678;23;20387;-87
2024/01/28 00:27:32;;;;;;;5.73;5.07;;;;;;;;;;6191001;23;20393;-87
2024/01/28 00:29:58;;;;;;;3.80;3.50;;;;;;;;;;6190705;23;20494;-87
2024/01/28 00:32:24;;;;;;;3.93;3.63;;;;;;;;;;6191789;23;20406;-86
2024/01/28 00:34:50;;;;;;;3.63;3.33;;;;;;;;;;6192391;23;20391;-87
2024/01/28 00:37:16;;;;;;;6.10;4.47;;;;;;;;;;6217636;23;20442;-87
2024/01/28 00:39:42;;;;;;;4.27;3.23;;;;;;;;;;6191585;23;20378;-87
2024/01/28 00:42:08;;;;;;;3.60;3.00;;;;;;;;;;6192187;22;20515;-87
2024/01/28 00:44:34;;;;;;;4.97;3.67;;;;;;;;;;6193389;23;20484;-87
2024/01/28 00:47:00;;;;;;;4.33;3.93;;;;;;;;;;6188655;23;20379;-86
2024/01/28 00:49:29;;;;;;;5.20;3.67;;;;;;;;;;6192502;23;20498;-89
2024/01/28 00:51:56;;;;;;;8.53;3.20;;;;;;;;;;6190159;23;20402;-87
2024/01/28 00:54:22;;;;;;;4.83;3.17;;;;;;;;;;6193456;23;20383;-87
2024/01/28 00:56:48;;;;;;;5.40;4.17;;;;;;;;;;6191203;23;20383;-87
2024/01/28 00:59:15;;;;;;;5.60;5.10;;;;;;;;;;6194184;23;20946;-87
2024/01/28 01:01:42;;;;;;;8.63;4.33;;;;;;;;;;6190367;23;20716;-87
2024/01/28 01:04:08;;;;;;;4.40;3.80;;;;;;;;;;6190862;23;20471;-87
2024/01/28 01:06:34;;;;;;;6.27;3.83;;;;;;;;;;6191544;23;20387;-86
2024/01/28 01:09:00;;;;;;;2.97;2.13;;;;;;;;;;6193300;23;20387;-87
2024/01/28 01:11:26;;;;;;;5.07;4.53;;;;;;;;;;6194882;23;20382;-87
2024/01/28 01:13:52;;;;;;;8.27;5.03;;;;;;;;;;6190119;23;20380;-87
2024/01/28 01:16:18;;;;;;;4.70;4.30;;;;;;;;;;6215654;23;20367;-87
2024/01/28 01:18:44;;;;;;;4.73;4.23;;;;;;;;;;6190953;23;20462;-87
2024/01/28 01:21:10;;;;;;;7.47;4.00;;;;;;;;;;6193724;23;20383;-87
2024/01/28 01:23:36;;;;;;;5.67;3.27;;;;;;;;;;6216397;23;20378;-86
2024/01/28 01:26:02;;;;;;;4.63;3.60;;;;;;;;;;6194254;23;20390;-86
2024/01/28 01:28:31;;;;;;;3.53;3.00;;;;;;;;;;6217459;23;20464;-85
2024/01/28 01:31:04;;;;;;;4.30;3.90;;;;;;;;;;6193708;23;20415;-87
2024/01/28 01:33:31;;;;;;;6.30;3.47;;;;;;;;;;6191601;23;20712;-88
2024/01/28 01:35:57;;;;;;;5.60;3.93;;;;;;;;;;6194593;23;20354;-87
2024/01/28 01:38:23;;;;;;;11.83;4.50;;;;;;;;;;6217153;23;20390;-88
2024/01/28 01:40:49;;;;;;;4.80;3.57;;;;;;;;;;6215161;23;21023;-87
2024/01/28 01:43:15;;;;;;;6.20;3.77;;;;;;;;;;6214897;23;20375;-87
2024/01/28 01:45:42;;;;;;;3.43;2.97;;;;;;;;;;6191664;23;20383;-87
2024/01/28 01:48:08;;;;;;;6.17;4.30;;;;;;;;;;6216895;23;20394;-88
2024/01/28 01:50:34;;;;;;;4.30;4.00;;;;;;;;;;6190237;23;20427;-87
2024/01/28 01:53:00;;;;;;;4.03;2.77;;;;;;;;;;6191575;23;20414;-87
2024/01/28 01:55:26;;;;;;;4.80;4.40;;;;;;;;;;6191369;23;20773;-87
2024/01/28 01:57:52;;;;;;;4.90;2.90;;;;;;;;;;6194109;23;20972;-87
2024/01/28 02:00:18;;;;;;;3.40;2.70;;;;;;;;;;6187076;23;20383;-88
2024/01/28 02:02:45;;;;;;;4.90;3.80;;;;;;;;;;6213902;23;20370;-87
2024/01/28 02:05:11;;;;;;;4.90;4.00;;;;;;;;;;6188798;23;20395;-88
2024/01/28 02:07:37;;;;;;;4.10;3.77;;;;;;;;;;6194037;23;20482;-88
2024/01/28 02:10:05;;;;;;;3.90;3.57;;;;;;;;;;6212619;23;20411;-87
2024/01/28 02:12:31;;;;;;;6.40;4.10;;;;;;;;;;6192387;23;20375;-88
2024/01/28 02:15:04;;;;;;;3.63;3.33;;;;;;;;;;6193292;23;20862;-88
2024/01/28 02:17:30;;;;;;;5.77;3.00;;;;;;;;;;6190234;23;20477;-88
2024/01/28 02:19:56;;;;;;;5.37;4.13;;;;;;;;;;6190594;23;20379;-88
2024/01/28 02:22:22;;;;;;;9.63;3.97;;;;;;;;;;6188116;23;20398;-87
2024/01/28 02:24:48;;;;;;;6.53;4.53;;;;;;;;;;6193048;23;20386;-88
2024/01/28 02:27:14;;;;;;;12.40;3.70;;;;;;;;;;6213877;23;20367;-88
2024/01/28 02:29:40;;;;;;;8.73;4.10;;;;;;;;;;6192200;23;20701;-88
2024/01/28 02:32:06;;;;;;;5.20;4.17;;;;;;;;;;6187859;23;20387;-86
2024/01/28 02:34:32;;;;;;;7.70;4.60;;;;;;;;;;6193168;23;20367;-87
2024/01/28 02:36:58;;;;;;;7.70;4.90;;;;;;;;;;6214354;23;20453;-87
2024/01/28 02:39:24;;;;;;;6.60;3.87;;;;;;;;;;6193166;23;20379;-87
2024/01/28 02:41:51;;;;;;;10.77;5.50;;;;;;;;;;6188882;23;20410;-87
2024/01/28 02:44:17;;;;;;;10.53;5.40;;;;;;;;;;6216388;23;20367;-87
2024/01/28 02:46:43;;;;;;;5.60;4.10;;;;;;;;;;6190383;23;20387;-87
2024/01/28 02:49:09;;;;;;;4.13;3.73;;;;;;;;;;6191507;23;20407;-87
2024/01/28 02:51:35;;;;;;;9.37;3.83;;;;;;;;;;6187292;23;20394;-85
2024/01/28 02:54:02;;;;;;;4.17;3.80;;;;;;;;;;6214227;23;20973;-86
2024/01/28 02:56:28;;;;;;;8.90;3.57;;;;;;;;;;6190534;23;20433;-86
2024/01/28 02:58:54;;;;;;;5.23;3.03;;;;;;;;;;6194539;23;20629;-86
2024/01/28 03:01:20;;;;;;;4.70;3.53;;;;;;;;;;6192096;23;20382;-87
2024/01/28 03:03:49;;;;;;;5.03;2.97;;;;;;;;;;6193130;23;20889;-86
2024/01/28 03:06:15;;;;;;;7.10;5.50;;;;;;;;;;6193106;23;20382;-88
2024/01/28 03:08:41;;;;;;;7.13;4.03;;;;;;;;;;6194047;23;20411;-87
2024/01/28 03:11:07;;;;;;;5.63;3.57;;;;;;;;;;6217065;23;20442;-86
2024/01/28 03:13:33;;;;;;;5.10;4.60;;;;;;;;;;6193648;23;20410;-87
2024/01/28 03:15:59;;;;;;;3.40;3.10;;;;;;;;;;6192454;23;20395;-88
2024/01/28 03:18:25;;;;;;;3.43;3.13;;;;;;;;;;6196132;23;20386;-87
2024/01/28 03:20:52;;;;;;;5.67;3.20;;;;;;;;;;6190756;23;20447;-87
2024/01/28 03:23:19;;;;;;;3.53;3.13;;;;;;;;;;6219956;23;20375;-87
2024/01/28 03:25:45;;;;;;;4.13;3.27;;;;;;;;;;6193732;23;20394;-88
2024/01/28 03:28:11;;;;;;;4.93;4.30;;;;;;;;;;6219699;23;20371;-88
2024/01/28 03:30:37;;;;;;;9.03;4.07;;;;;;;;;;6193319;23;20425;-87
2024/01/28 03:33:03;;;;;;;5.73;3.20;;;;;;;;;;6193304;23;20756;-88
2024/01/28 03:35:29;;;;;;;6.80;4.00;;;;;;;;;;6196619;23;20378;-87
2024/01/28 03:37:55;;;;;;;10.33;5.20;;;;;;;;;;6194879;23;20482;-87
2024/01/28 03:40:21;;;;;;;4.20;3.20;;;;;;;;;;6194252;23;20383;-87
2024/01/28 03:42:47;;;;;;;4.00;3.50;;;;;;;;;;6218738;23;20367;-88
2024/01/28 03:45:13;;;;;;;5.17;3.93;;;;;;;;;;6197367;23;20383;-87
2024/01/28 03:47:39;;;;;;;4.60;3.30;;;;;;;;;;6218923;23;20368;-87
2024/01/28 03:50:05;;;;;;;7.07;5.33;;;;;;;;;;6196101;23;20430;-88
2024/01/28 03:52:31;;;;;;;3.97;3.50;;;;;;;;;;6195079;23;20718;-87
2024/01/28 03:54:57;;;;;;;7.80;4.60;;;;;;;;;;6194704;23;20466;-87
2024/01/28 03:57:23;;;;;;;6.97;3.77;;;;;;;;;;6192709;23;20417;-87
2024/01/28 03:59:49;;;;;;;3.50;3.17;;;;;;;;;;6220214;23;20375;-87
2024/01/28 04:02:15;;;;;;;5.50;4.90;;;;;;;;;;6190950;23;20517;-87
2024/01/28 04:04:41;;;;;;;7.07;4.47;;;;;;;;;;6220424;23;20378;-87
2024/01/28 04:07:07;;;;;;;7.80;4.50;;;;;;;;;;6192457;23;20383;-88
2024/01/28 04:09:33;;;;;;;5.63;4.40;;;;;;;;;;6194950;23;20785;-87
2024/01/28 04:11:59;;;;;;;5.73;3.77;;;;;;;;;;6193163;23;20383;-86
2024/01/28 04:14:25;;;;;;;6.20;4.00;;;;;;;;;;6193158;23;20713;-87
2024/01/28 04:16:51;;;;;;;6.73;4.00;;;;;;;;;;6193812;23;20371;-87
2024/01/28 04:19:17;;;;;;;6.83;4.53;;;;;;;;;;6197431;23;20390;-87
2024/01/28 04:21:43;;;;;;;5.03;3.70;;;;;;;;;;6219169;23;20371;-87
2024/01/28 04:24:09;;;;;;;3.07;2.67;;;;;;;;;;6194261;23;20892;-87
2024/01/28 04:26:35;;;;;;;6.00;4.27;;;;;;;;;;6193557;23;20854;-87
2024/01/28 04:29:01;;;;;;;5.03;3.93;;;;;;;;;;6193924;23;20381;-87
2024/01/28 04:31:29;;;;;;;9.13;3.83;;;;;;;;;;6187739;23;20580;-86
2024/01/28 04:33:55;;;;;;;4.60;3.03;;;;;;;;;;6159996;23;20394;-87
2024/01/28 04:36:21;;;;;;;4.03;3.63;;;;;;;;;;6164682;23;20403;-87
2024/01/28 04:38:47;;;;;;;11.60;5.10;;;;;;;;;;6160660;23;20412;-87
2024/01/28 04:41:14;;;;;;;5.80;3.40;;;;;;;;;;6163438;23;20380;-88
2024/01/28 04:43:40;;;;;;;12.10;3.37;;;;;;;;;;6161506;23;20403;-87
2024/01/28 04:46:06;;;;;;;4.13;3.30;;;;;;;;;;6161908;23;20958;-87
2024/01/28 04:48:32;;;;;;;11.00;3.47;;;;;;;;;;6159725;23;20387;-87
2024/01/28 04:50:58;;;;;;;3.53;3.20;;;;;;;;;;6163940;23;20427;-88
2024/01/28 04:53:24;;;;;;;3.97;3.63;;;;;;;;;;6160695;23;20388;-87
2024/01/28 04:55:50;;;;;;;4.13;3.70;;;;;;;;;;6161819;23;20459;-88
2024/01/28 04:58:15;;;;;;;5.40;3.70;;;;;;;;;;6160384;23;20603;-87
2024/01/28 05:00:41;;;;;;;3.87;3.57;;;;;;;;;;6163158;23;20376;-87
2024/01/28 05:03:08;;;;;;;3.77;3.03;;;;;;;;;;6187620;23;20395;-87
2024/01/28 05:05:34;;;;;;;26.10;23.87;;;;;;;;;;6192367;23;20383;-85
2024/01/28 05:08:00;;;;;;;11.40;5.67;;;;;;;;;;6194669;23;20395;-87
2024/01/28 05:10:27;;;;;;;8.63;4.83;;;;;;;;;;6191993;23;20781;-84
2024/01/28 05:12:53;;;;;;;5.57;4.00;;;;;;;;;;6193664;23;20422;-86
2024/01/28 05:15:19;;;;;;;6.73;3.10;;;;;;;;;;6192995;23;20379;-88
2024/01/28 05:17:45;;;;;;;5.10;3.20;;;;;;;;;;6217759;23;20450;-88
2024/01/28 05:20:14;;;;;;;3.97;2.90;;;;;;;;;;6191802;23;20379;-87
2024/01/28 05:22:40;;;;;;;3.27;2.97;;;;;;;;;;6194490;23;20386;-88
2024/01/28 05:25:07;;;;;;;11.13;5.27;;;;;;;;;;6191097;23;20382;-87
2024/01/28 05:27:33;;;;;;;3.80;3.40;;;;;;;;;;6220141;23;20590;-88
2024/01/28 05:29:59;;;;;;;6.50;3.23;;;;;;;;;;6192952;23;20441;-87
2024/01/28 05:32:26;;;;;;;4.37;3.70;;;;;;;;;;6192816;23;20390;-88
2024/01/28 05:34:52;;;;;;;4.07;3.67;;;;;;;;;;6215018;23;20370;-86
2024/01/28 05:37:18;;;;;;;4.77;4.30;;;;;;;;;;6194200;23;20391;-86
2024/01/28 05:39:44;;;;;;;6.07;4.83;;;;;;;;;;6192611;23;20513;-87
2024/01/28 05:42:10;;;;;;;5.67;3.77;;;;;;;;;;6221084;23;20367;-87
2024/01/28 05:44:36;;;;;;;2.20;2.00;;;;;;;;;;6217116;23;20376;-88
2024/01/28 05:47:03;;;;;;;3.90;2.60;;;;;;;;;;6193535;23;20376;-87
2024/01/28 05:49:29;;;;;;;4.00;3.37;;;;;;;;;;6192552;23;20419;-87
2024/01/28 05:51:55;;;;;;;21.23;5.00;;;;;;;;;;6196241;23;20470;-88
2024/01/28 05:54:21;;;;;;;5.40;4.83;;;;;;;;;;6193668;23;20387;-87
2024/01/28 05:56:47;;;;;;;4.13;2.83;;;;;;;;;;6191777;23;20943;-87
2024/01/28 05:59:13;;;;;;;4.33;3.37;;;;;;;;;;6195571;23;20925;-87
2024/01/28 06:01:39;;;;;;;3.70;3.27;;;;;;;;;;6191482;23;20367;-87
2024/01/28 06:04:07;;;;;;;5.13;3.27;;;;;;;;;;6217227;23;20425;-88
2024/01/28 06:06:33;;;;;;;2.90;2.67;;;;;;;;;;6191053;23;20399;-87
2024/01/28 06:08:58;;;;;;;3.43;2.90;;;;;;;;;;6193084;23;20690;-88
2024/01/28 06:11:25;;;;;;;3.70;3.20;;;;;;;;;;6192087;23;20509;-88
2024/01/28 06:13:51;;;;;;;3.90;3.50;;;;;;;;;;6194112;23;20447;-88
2024/01/28 06:16:17;;;;;;;3.37;3.07;;;;;;;;;;6191235;23;20387;-87
2024/01/28 06:18:43;;;;;;;5.87;3.60;;;;;;;;;;6194843;23;20478;-88
2024/01/28 06:21:10;;;;;;;5.97;3.93;;;;;;;;;;6189263;23;20395;-88
2024/01/28 06:23:37;;;;;;;5.80;3.90;;;;;;;;;;6192041;23;20470;-88
2024/01/28 06:26:02;;;;;;;9.77;2.93;;;;;;;;;;6186869;23;20387;-88
2024/01/28 06:28:28;;;;;;;13.07;4.33;;;;;;;;;;6215974;23;20382;-88
2024/01/28 06:30:54;;;;;;;7.53;4.03;;;;;;;;;;6190571;23;20494;-87
2024/01/28 06:33:20;;;;;;;3.63;3.33;;;;;;;;;;6191161;23;20447;-87
2024/01/28 06:35:46;;;;;;;16.23;5.10;;;;;;;;;;6217679;23;20364;-87
2024/01/28 06:38:13;;;;;;;5.77;4.50;;;;;;;;;;6218606;23;20853;-87
2024/01/28 06:40:39;;;;;;;6.37;4.20;;;;;;;;;;6194224;23;20623;-87
2024/01/28 06:43:05;;;;;;;4.13;2.80;;;;;;;;;;6192275;23;20386;-88
2024/01/28 06:45:31;;;;;;;5.93;3.10;;;;;;;;;;6197489;23;20374;-89
2024/01/28 06:47:57;;;;;;;4.40;3.80;;;;;;;;;;6220787;23;20739;-88
2024/01/28 06:50:23;;;;;;;7.17;4.13;;;;;;;;;;6195972;23;20469;-88
2024/01/28 06:52:49;;;;;;;12.07;4.73;;;;;;;;;;6222380;23;20505;-89
2024/01/28 06:55:15;;;;;;;8.30;6.07;;;;;;;;;;6220972;23;20363;-88
2024/01/28 06:57:41;;;;;;;4.83;3.73;;;;;;;;;;6196616;23;20398;-88
2024/01/28 07:00:10;;;;;;;4.40;4.00;;;;;;;;;;6193679;23;20371;-86
2024/01/28 07:02:39;;;;;;;5.67;3.83;;;;;;;;;;6193877;23;20375;-88
2024/01/28 07:05:05;;;;;;;3.70;3.40;;;;;;;;;;6197467;23;20379;-88
2024/01/28 07:07:31;;;;;;;4.97;4.50;;;;;;;;;;6192383;23;20387;-88
2024/01/28 07:09:57;;;;;;;5.33;4.17;;;;;;;;;;6194690;23;20741;-88
2024/01/28 07:12:23;;;;;;;5.47;4.07;;;;;;;;;;6192949;23;20386;-88
2024/01/28 07:14:49;;;;;;;4.33;3.93;;;;;;;;;;6223117;23;20383;-86
2024/01/28 07:17:15;;;;;;;3.87;3.23;;;;;;;;;;6218855;23;20429;-87
2024/01/28 07:19:41;;;;;;;6.67;4.57;;;;;;;;;;6195041;23;20466;-88
2024/01/28 07:22:07;;;;;;;4.83;4.30;;;;;;;;;;6194219;23;20387;-88
2024/01/28 07:24:33;;;;;;;4.53;4.13;;;;;;;;;;6195272;23;20469;-88
2024/01/28 07:26:59;;;;;;;4.27;3.63;;;;;;;;;;6193174;23;20862;-89
2024/01/28 07:29:25;;;;;;;9.60;4.93;;;;;;;;;;6198881;23;20394;-88
2024/01/28 07:31:52;;;;;;;6.40;4.77;;;;;;;;;;6193928;23;20375;-88
2024/01/28 07:34:20;;;;;;;13.17;7.00;;;;;;;;;;6194759;23;20399;-90
2024/01/28 07:36:47;;;;;;;6.43;5.87;;;;;;;;;;6192636;23;20410;-88
2024/01/28 07:39:16;;;;;;;5.53;4.93;;;;;;;;;;6218536;23;20727;-88
2024/01/28 07:41:42;;;;;;;8.33;5.40;;;;;;;;;;6196048;23;20383;-88
2024/01/28 07:44:08;;;;;;;5.67;4.57;;;;;;;;;;6193506;23;20467;-89
2024/01/28 07:46:34;;;;;;;6.60;4.73;;;;;;;;;;6196665;23;20446;-88
2024/01/28 07:49:00;;;;;;;10.70;5.90;;;;;;;;;;6192663;23;20721;-89
2024/01/28 07:51:26;;;;;;;7.80;5.77;;;;;;;;;;6197025;23;20423;-88
2024/01/28 07:53:52;;;;;;;5.60;5.10;;;;;;;;;;6193131;23;20380;-88
2024/01/28 07:56:18;;;;;;;7.80;6.73;;;;;;;;;;6194273;23;20387;-88
2024/01/28 07:58:44;;;;;;;5.20;4.80;;;;;;;;;;6193139;23;20387;-88
2024/01/28 08:01:10;;;;;;;4.93;4.40;;;;;;;;;;6196597;23;20391;-87
2024/01/28 08:03:36;;;;;;;6.10;5.00;;;;;;;;;;6218025;23;20394;-87
2024/01/28 08:06:04;;;;;;;6.13;4.50;;;;;;;;;;6219259;23;20371;-88
2024/01/28 08:08:30;;;;;;;4.90;4.50;;;;;;;;;;6218641;23;20474;-88
2024/01/28 08:10:56;;;;;;;13.53;5.60;;;;;;;;;;6218940;23;20403;-87
2024/01/28 08:13:22;;;;;;;8.80;5.83;;;;;;;;;;6217857;23;20478;-87
2024/01/28 08:15:48;;;;;;;8.07;4.87;;;;;;;;;;6193268;23;20460;-87
2024/01/28 08:18:14;;;;;;;7.10;5.93;;;;;;;;;;6192297;23;20873;-88
2024/01/28 08:20:40;;;;;;;5.83;5.43;;;;;;;;;;6196365;23;20379;-87
2024/01/28 08:23:06;;;;;;;6.00;5.20;;;;;;;;;;6192381;23;20384;-87
2024/01/28 08:25:32;;;;;;;6.60;4.93;;;;;;;;;;6194695;23;20385;-88
2024/01/28 08:27:58;;;;;;;11.83;5.67;;;;;;;;;;6192653;23;20391;-88
2024/01/28 08:30:24;;;;;;;8.10;5.30;;;;;;;;;;6192745;23;20414;-87
2024/01/28 08:32:50;;;;;;;6.97;5.97;;;;;;;;;;6195190;23;20398;-88
2024/01/28 08:35:17;;;;;;;6.00;4.03;;;;;;;;;;6193011;23;20379;-87
2024/01/28 08:37:43;;;;;;;4.57;4.17;;;;;;;;;;6192827;23;20407;-88
2024/01/28 08:40:09;;;;;;;6.40;5.43;;;;;;;;;;6191505;23;20435;-88
2024/01/28 08:42:35;;;;;;;5.77;4.83;;;;;;;;;;6195828;23;20387;-89
2024/01/28 08:45:01;;;;;;;9.40;6.03;;;;;;;;;;6217787;23;20371;-88
2024/01/28 08:47:27;;;;;;;6.13;5.57;;;;;;;;;;6193855;23;20379;-89
2024/01/28 08:49:53;;;;;;;7.07;5.60;;;;;;;;;;6193346;23;20425;-87
2024/01/28 08:52:20;;;;;;;8.13;7.20;;;;;;;;;;6220851;23;20367;-88
2024/01/28 08:54:47;;;;;;;9.10;7.40;;;;;;;;;;6191778;23;20379;-88
2024/01/28 08:57:14;;;;;;;9.47;7.00;;;;;;;;;;6215974;23;20374;-88
2024/01/28 08:59:40;;;;;;;12.47;6.47;;;;;;;;;;6188241;23;20874;-88
2024/01/28 09:02:06;;;;;;;7.50;6.60;;;;;;;;;;6190070;23;20383;-87
2024/01/28 09:04:32;;;;;;;11.67;6.70;;;;;;;;;;6194447;23;20597;-87
2024/01/28 09:06:58;;;;;;;10.73;6.77;;;;;;;;;;6192281;23;20466;-90
2024/01/28 09:09:26;;;;;;;10.70;6.40;;;;;;;;;;6193799;23;20379;-86
2024/01/28 09:11:52;;;;;;;6.83;6.17;;;;;;;;;;6190960;23;21124;-86
2024/01/28 09:14:18;;;;;;;8.63;5.53;;;;;;;;;;6189805;23;20465;-86
2024/01/28 09:16:44;;;;;;;6.10;5.57;;;;;;;;;;6190532;23;20457;-87
2024/01/28 09:19:10;;;;;;;12.00;6.60;;;;;;;;;;6195326;23;20352;-87
2024/01/28 09:21:36;;;;;;;9.63;6.13;;;;;;;;;;6190936;23;20421;-87
2024/01/28 09:24:02;;;;;;;8.37;7.50;;;;;;;;;;6193650;22;20969;-87
2024/01/28 09:26:28;;;;;;;10.90;8.20;;;;;;;;;;6190009;23;20398;-87
2024/01/28 09:28:54;;;;;;;7.13;6.20;;;;;;;;;;6215940;23;20371;-87
2024/01/28 09:31:20;;;;;;;10.13;8.50;;;;;;;;;;6190713;23;20476;-87
2024/01/28 09:33:46;;;;;;;8.57;5.80;;;;;;;;;;6191408;23;20502;-87
2024/01/28 09:36:12;;;;;;;11.97;6.30;;;;;;;;;;6192007;23;20745;-87
2024/01/28 09:38:39;;;;;;;6.40;5.80;;;;;;;;;;6217582;23;20359;-87
2024/01/28 09:41:09;;;;;;;8.90;7.30;;;;;;;;;;6189718;23;20383;-88
2024/01/28 09:43:39;;;;;;;9.80;8.07;;;;;;;;;;6193330;23;20472;-87
2024/01/28 09:46:05;;;;;;;10.70;6.43;;;;;;;;;;6216063;23;20402;-88
2024/01/28 09:48:31;;;;;;;14.07;7.70;;;;;;;;;;6192341;23;20383;-87
2024/01/28 09:50:58;;;;;;;11.17;8.53;;;;;;;;;;6190113;23;20918;-87
2024/01/28 09:53:24;;;;;;;11.53;9.90;;;;;;;;;;6193246;23;20841;-88
2024/01/28 09:55:50;;;;;;;20.47;8.20;;;;;;;;;;6213373;23;20375;-87
2024/01/28 09:58:15;;;;;;;15.37;9.07;;;;;;;;;;6191284;23;20528;-88
2024/01/28 10:00:41;;;;;;;14.20;8.57;;;;;;;;;;6189514;23;20381;-88
2024/01/28 10:03:08;;;;;;;9.93;8.23;;;;;;;;;;6216118;23;20371;-87
2024/01/28 10:05:34;;;;;;;8.70;7.27;;;;;;;;;;6191269;23;20387;-87
2024/01/28 10:08:02;;;;;;;11.93;7.13;;;;;;;;;;6188840;23;20402;-88
2024/01/28 10:10:28;;;;;;;14.20;9.43;;;;;;;;;;6153561;23;20439;-87
2024/01/28 10:12:54;;;;;;;15.83;11.30;;;;;;;;;;6131655;23;20405;-88
2024/01/28 10:15:20;;;;;;;16.17;8.67;;;;;;;;;;6128825;23;20385;-87
2024/01/28 10:17:49;;;;;;;8.87;7.27;;;;;;;;;;6129038;23;20448;-88
2024/01/28 10:20:19;;;;;;;9.57;6.90;;;;;;;;;;6127441;23;20396;-87
2024/01/28 10:22:49;;;;;;;8.70;6.93;;;;;;;;;;6134112;23;20376;-86
2024/01/28 10:25:15;;;;;;;8.60;6.27;;;;;;;;;;6132914;23;20860;-86
2024/01/28 10:27:47;;;;;;;7.60;6.37;;;;;;;;;;6155035;23;20419;-86
2024/01/28 10:30:14;;;;;;;7.43;5.97;;;;;;;;;;6127321;23;20420;-86
2024/01/28 10:32:41;;;;;;;8.60;6.90;;;;;;;;;;6131120;23;20373;-85
2024/01/28 10:35:10;;;;;;;8.57;5.80;;;;;;;;;;6131975;23;20381;-85
2024/01/28 10:37:38;;;;;;;8.67;6.63;;;;;;;;;;6128418;23;20990;-86
2024/01/28 10:40:08;;;;;;;9.07;6.23;;;;;;;;;;6132045;23;20755;-86
2024/01/28 10:42:36;;;;;;;10.00;8.83;;;;;;;;;;6130758;23;20471;-86
2024/01/28 10:45:02;;;;;;;8.47;6.00;;;;;;;;;;6131017;23;20463;-86
2024/01/28 10:47:28;;;;;;;10.90;6.10;;;;;;;;;;6145889;23;20707;-87
2024/01/28 10:49:59;;;;;;;5.77;5.00;;;;;;;;;;6190339;23;20777;-86
2024/01/28 10:52:26;;;;;;;5.27;4.77;;;;;;;;;;6189145;23;20386;-87
2024/01/28 10:54:52;;;;;;;8.90;6.00;;;;;;;;;;6191778;23;20387;-87
2024/01/28 10:57:19;;;;;;;6.77;4.77;;;;;;;;;;6189731;23;20445;-87
2024/01/28 10:59:45;;;;;;;5.90;4.97;;;;;;;;;;6217631;23;20386;-88
2024/01/28 11:02:12;;;;;;;8.30;6.77;;;;;;;;;;6217351;23;20375;-87
2024/01/28 11:04:38;;;;;;;6.17;4.90;;;;;;;;;;6192732;23;20382;-85
2024/01/28 11:07:05;;;;;;;6.37;5.27;;;;;;;;;;6192057;23;20413;-86
2024/01/28 11:09:32;;;;;;;5.40;4.10;;;;;;;;;;6194659;23;20450;-86
2024/01/28 11:11:58;;;;;;;6.73;4.23;;;;;;;;;;6190180;23;20382;-85
2024/01/28 11:14:26;;;;;;;10.07;4.50;;;;;;;;;;6189688;23;20710;-86
2024/01/28 11:16:52;;;;;;;6.60;4.10;;;;;;;;;;6190847;23;20377;-86
2024/01/28 11:19:18;;;;;;;6.10;5.00;;;;;;;;;;6218327;23;20368;-85
2024/01/28 11:21:50;;;;;;;5.00;4.50;;;;;;;;;;6193735;23;20387;-86
2024/01/28 11:24:18;;;;;;;5.47;4.80;;;;;;;;;;6193152;23;20433;-85
2024/01/28 11:26:50;;;;;;;7.33;6.00;;;;;;;;;;6192071;23;20397;-86
2024/01/28 11:29:16;;;;;;;5.03;4.63;;;;;;;;;;6192453;23;20394;-87
2024/01/28 11:31:42;;;;;;;6.27;5.67;;;;;;;;;;6194300;23;20419;-85
2024/01/28 11:34:08;;;;;;;6.13;5.47;;;;;;;;;;6192885;23;20376;-87
2024/01/28 11:36:39;;;;;;;11.83;5.60;;;;;;;;;;6217624;23;20920;-86
2024/01/28 11:39:06;;;;;;;7.30;5.30;;;;;;;;;;6190204;23;20409;-87
2024/01/28 11:41:41;;;;;;;6.37;5.03;;;;;;;;;;6192511;23;20889;-86
2024/01/28 11:44:10;;;;;;;6.30;5.07;;;;;;;;;;6216223;23;20359;-86
2024/01/28 11:46:36;;;;;;;5.83;4.80;;;;;;;;;;6192605;23;20387;-87
2024/01/28 11:49:02;;;;;;;9.40;6.23;;;;;;;;;;6216441;23;20690;-86
2024/01/28 11:51:33;;;;;;;6.60;5.30;;;;;;;;;;6192360;23;20411;-86
2024/01/28 11:54:03;;;;;;;7.23;5.30;;;;;;;;;;6192207;23;20383;-86
2024/01/28 11:56:29;;;;;;;6.30;5.70;;;;;;;;;;6193231;23;20375;-86
2024/01/28 11:58:56;;;;;;;7.33;5.97;;;;;;;;;;6216863;23;20374;-87
2024/01/28 12:01:22;;;;;;;6.87;5.47;;;;;;;;;;6192002;23;20391;-86
2024/01/28 12:03:48;;;;;;;8.30;4.80;;;;;;;;;;6190465;23;20463;-86
2024/01/28 12:06:16;;;;;;;5.60;5.00;;;;;;;;;;6195988;23;20390;-88
2024/01/28 12:08:43;;;;;;;5.77;5.20;;;;;;;;;;6192102;23;20374;-88
2024/01/28 12:11:10;;;;;;;6.00;5.50;;;;;;;;;;6192309;23;20511;-87
2024/01/28 12:13:36;;;;;;;6.80;6.10;;;;;;;;;;6216514;23;20378;-87
2024/01/28 12:16:02;;;;;;;6.53;5.53;;;;;;;;;;6195998;23;20416;-87
2024/01/28 12:18:34;;;;;;;6.77;5.93;;;;;;;;;;6216640;23;20396;-86
2024/01/28 12:21:00;;;;;;;6.90;6.20;;;;;;;;;;6195104;23;20390;-88
2024/01/28 12:23:26;;;;;;;6.57;5.97;;;;;;;;;;6192729;23;20906;-86
2024/01/28 12:25:52;;;;;;;6.73;6.13;;;;;;;;;;6191623;23;20877;-86
2024/01/28 12:28:18;;;;;;;7.23;6.53;;;;;;;;;;6191706;23;20383;-87
2024/01/28 12:30:54;;;;;;;8.20;7.23;;;;;;;;;;6213723;23;20418;-86
2024/01/28 12:33:23;;;;;;;8.17;6.67;;;;;;;;;;6190504;23;20466;-88
2024/01/28 12:35:55;;;;;;;6.10;5.43;;;;;;;;;;6191408;23;20387;-88
2024/01/28 12:38:21;;;;;;;7.93;7.13;;;;;;;;;;6191153;23;20858;-88
2024/01/28 12:40:47;;;;;;;7.10;5.97;;;;;;;;;;6189486;23;20389;-89
2024/01/28 12:43:13;;;;;;;8.40;7.10;;;;;;;;;;6215754;23;20378;-88
2024/01/28 12:45:39;;;;;;;8.57;6.17;;;;;;;;;;6192491;23;20379;-88
2024/01/28 12:48:06;;;;;;;6.30;5.67;;;;;;;;;;6190778;23;20440;-89
2024/01/28 12:50:31;;;;;;;7.20;4.80;;;;;;;;;;6191601;23;20421;-90
2024/01/28 12:52:58;;;;;;;4.83;4.43;;;;;;;;;;6191052;23;20466;-86
2024/01/28 12:55:24;;;;;;;5.60;4.53;;;;;;;;;;6190859;23;20376;-85
2024/01/28 12:57:50;;;;;;;6.50;4.97;;;;;;;;;;6216849;23;20363;-92
2024/01/28 13:00:16;;;;;;;11.63;4.67;;;;;;;;;;6190020;23;20381;-89
2024/01/28 13:02:43;;;;;;;7.57;4.13;;;;;;;;;;6216276;23;20351;-88
2024/01/28 13:05:10;;;;;;;4.57;4.13;;;;;;;;;;6192714;23;20385;-88
2024/01/28 13:07:36;;;;;;;5.37;3.50;;;;;;;;;;6191143;23;20401;-88
2024/01/28 13:10:12;;;;;;;3.77;3.20;;;;;;;;;;6190813;23;20711;-87
2024/01/28 13:12:41;;;;;;;4.10;3.53;;;;;;;;;;6186886;23;20367;-87
2024/01/28 13:15:07;;;;;;;4.43;3.70;;;;;;;;;;6215251;23;21264;-88
2024/01/28 13:17:34;;;;;;;2.70;2.50;;;;;;;;;;6187981;23;20425;-88
2024/01/28 13:20:00;;;;;;;2.20;2.00;;;;;;;;;;6194181;23;20379;-88
2024/01/28 13:22:26;;;;;;;3.47;2.50;;;;;;;;;;6192484;23;20379;-87
2024/01/28 13:24:53;;;;;;;2.60;2.20;;;;;;;;;;6194689;23;20383;-87
2024/01/28 13:27:20;;;;;;;4.03;2.53;;;;;;;;;;6190727;23;20389;-88
2024/01/28 13:29:46;;;;;;;2.53;2.03;;;;;;;;;;6192550;23;20428;-89
2024/01/28 13:32:12;;;;;;;3.37;2.13;;;;;;;;;;6192721;23;20835;-89
2024/01/28 13:34:38;;;;;;;3.20;1.87;;;;;;;;;;6193056;23;20430;-88
2024/01/28 13:37:04;;;;;;;3.77;2.63;;;;;;;;;;6214153;23;20469;-87
2024/01/28 13:39:30;;;;;;;4.30;2.10;;;;;;;;;;6213837;23;20375;-91
2024/01/28 13:41:56;;;;;;;3.00;2.50;;;;;;;;;;6190787;23;20411;-88
2024/01/28 13:44:23;;;;;;;5.60;3.40;;;;;;;;;;6193556;23;20466;-89
2024/01/28 13:46:49;;;;;;;5.20;2.73;;;;;;;;;;6218976;23;20389;-88
2024/01/28 13:49:15;;;;;;;4.33;2.53;;;;;;;;;;6190259;23;20374;-88
2024/01/28 13:51:40;;;;;;;11.47;2.77;;;;;;;;;;6188697;23;20482;-89
2024/01/28 13:54:06;;;;;;;3.17;2.50;;;;;;;;;;6191283;23;20433;-89
2024/01/28 13:56:32;;;;;;;2.90;2.17;;;;;;;;;;6194294;23;20379;-89
2024/01/28 13:58:59;;;;;;;3.47;2.60;;;;;;;;;;6193749;23;20383;-89
2024/01/28 14:01:28;;;;;;;2.63;2.23;;;;;;;;;;6191033;23;20579;-87
2024/01/28 14:03:54;;;;;;;2.70;2.50;;;;;;;;;;6193473;23;20398;-90
2024/01/28 14:06:20;;;;;;;3.10;2.57;;;;;;;;;;6191720;23;20462;-90
2024/01/28 14:08:46;;;;;;;3.40;2.13;;;;;;;;;;6191588;23;20383;-88
2024/01/28 14:11:12;;;;;;;3.70;3.17;;;;;;;;;;6195930;23;20421;-90
2024/01/28 14:13:38;;;;;;;3.30;2.80;;;;;;;;;;6191170;23;20438;-88
2024/01/28 14:16:05;;;;;;;3.73;3.43;;;;;;;;;;6194888;23;20475;-89
2024/01/28 14:18:31;;;;;;;2.93;2.60;;;;;;;;;;6193407;23;20379;-88
2024/01/28 14:20:57;;;;;;;7.10;5.67;;;;;;;;;;6193375;23;20378;-88
2024/01/28 14:23:23;;;;;;;5.33;3.87;;;;;;;;;;6192976;23;20410;-88
2024/01/28 14:25:49;;;;;;;4.50;3.00;;;;;;;;;;6193667;23;20375;-88
2024/01/28 14:28:15;;;;;;;3.33;2.57;;;;;;;;;;6217163;23;20399;-88
2024/01/28 14:30:42;;;;;;;3.43;3.07;;;;;;;;;;6195512;23;20426;-88
2024/01/28 14:33:08;;;;;;;4.33;3.10;;;;;;;;;;6217502;23;20502;-88
2024/01/28 14:35:34;;;;;;;4.33;2.70;;;;;;;;;;6194497;23;20469;-88